sensor_id;sensor_type;location;lat;lon;timestamp;P1;durP1;ratioP1;P2;durP2;ratioP2
553;SDS011;59;48.778;9.156;2022-08-19T00:00:27;16.40;;;13.67;;
553;SDS011;59;48.778;9.156;2022-08-19T00:02:53;16.50;;;14.43;;
553;SDS011;59;48.778;9.156;2022-08-19T00:05:19;17.37;;;14.10;;
553;SDS011;59;48.778;9.156;2022-08-19T00:07:48;18.00;;;14.60;;
553;SDS011;59;48.778;9.156;2022-08-19T00:10:15;15.40;;;13.50;;
553;SDS011;59;48.778;9.156;2022-08-19T00:12:41;17.23;;;14.27;;
553;SDS011;59;48.778;9.156;2022-08-19T00:15:08;17.07;;;13.90;;
553;SDS011;59;48.778;9.156;2022-08-19T00:17:43;17.40;;;14.20;;
553;SDS011;59;48.778;9.156;2022-08-19T00:20:11;17.53;;;14.40;;
553;SDS011;59;48.778;9.156;2022-08-19T00:22:41;17.60;;;13.53;;
553;SDS011;59;48.778;9.156;2022-08-19T00:25:07;19.63;;;14.73;;
553;SDS011;59;48.778;9.156;2022-08-19T00:27:33;17.23;;;14.20;;
553;SDS011;59;48.778;9.156;2022-08-19T00:29:59;19.20;;;14.50;;
553;SDS011;59;48.778;9.156;2022-08-19T00:32:25;18.20;;;14.50;;
553;SDS011;59;48.778;9.156;2022-08-19T00:34:51;17.83;;;13.93;;
553;SDS011;59;48.778;9.156;2022-08-19T00:37:18;18.47;;;14.10;;
553;SDS011;59;48.778;9.156;2022-08-19T00:39:45;18.50;;;14.87;;
553;SDS011;59;48.778;9.156;2022-08-19T00:42:10;18.40;;;14.63;;
553;SDS011;59;48.778;9.156;2022-08-19T00:44:38;18.30;;;14.37;;
553;SDS011;59;48.778;9.156;2022-08-19T00:47:04;18.37;;;14.60;;
553;SDS011;59;48.778;9.156;2022-08-19T00:49:40;19.80;;;14.27;;
553;SDS011;59;48.778;9.156;2022-08-19T00:52:16;18.60;;;14.30;;
553;SDS011;59;48.778;9.156;2022-08-19T00:54:48;19.57;;;14.40;;
553;SDS011;59;48.778;9.156;2022-08-19T00:57:15;17.77;;;13.97;;
553;SDS011;59;48.778;9.156;2022-08-19T00:59:44;17.53;;;14.13;;
553;SDS011;59;48.778;9.156;2022-08-19T01:05:14;18.33;;;15.10;;
553;SDS011;59;48.778;9.156;2022-08-19T01:07:43;16.97;;;14.27;;
553;SDS011;59;48.778;9.156;2022-08-19T01:10:11;21.60;;;15.63;;
553;SDS011;59;48.778;9.156;2022-08-19T01:12:38;19.60;;;14.80;;
553;SDS011;59;48.778;9.156;2022-08-19T01:15:08;18.77;;;14.60;;
553;SDS011;59;48.778;9.156;2022-08-19T01:17:35;17.90;;;14.03;;
553;SDS011;59;48.778;9.156;2022-08-19T01:20:02;18.77;;;14.97;;
553;SDS011;59;48.778;9.156;2022-08-19T01:22:32;17.27;;;13.97;;
553;SDS011;59;48.778;9.156;2022-08-19T01:25:01;16.83;;;14.00;;
553;SDS011;59;48.778;9.156;2022-08-19T01:27:36;19.13;;;15.07;;
553;SDS011;59;48.778;9.156;2022-08-19T01:30:03;17.23;;;14.17;;
553;SDS011;59;48.778;9.156;2022-08-19T01:32:30;17.67;;;14.50;;
553;SDS011;59;48.778;9.156;2022-08-19T01:34:56;19.00;;;14.70;;
553;SDS011;59;48.778;9.156;2022-08-19T01:37:21;18.10;;;15.23;;
553;SDS011;59;48.778;9.156;2022-08-19T01:39:48;18.30;;;15.07;;
553;SDS011;59;48.778;9.156;2022-08-19T01:42:15;18.87;;;15.93;;
553;SDS011;59;48.778;9.156;2022-08-19T01:44:40;17.43;;;14.33;;
553;SDS011;59;48.778;9.156;2022-08-19T01:47:06;23.70;;;15.13;;
553;SDS011;59;48.778;9.156;2022-08-19T01:49:34;19.27;;;15.33;;
553;SDS011;59;48.778;9.156;2022-08-19T01:51:59;18.23;;;15.10;;
553;SDS011;59;48.778;9.156;2022-08-19T01:54:26;18.90;;;15.37;;
553;SDS011;59;48.778;9.156;2022-08-19T01:56:52;18.93;;;15.97;;
553;SDS011;59;48.778;9.156;2022-08-19T01:59:21;18.00;;;15.60;;
553;SDS011;59;48.778;9.156;2022-08-19T02:01:47;19.37;;;15.17;;
553;SDS011;59;48.778;9.156;2022-08-19T02:04:13;18.87;;;15.30;;
553;SDS011;59;48.778;9.156;2022-08-19T02:06:39;18.20;;;15.30;;
553;SDS011;59;48.778;9.156;2022-08-19T02:09:06;21.60;;;16.30;;
553;SDS011;59;48.778;9.156;2022-08-19T02:11:34;20.87;;;16.20;;
553;SDS011;59;48.778;9.156;2022-08-19T02:14:02;20.30;;;16.40;;
553;SDS011;59;48.778;9.156;2022-08-19T02:16:30;19.00;;;15.90;;
553;SDS011;59;48.778;9.156;2022-08-19T02:18:57;22.20;;;16.17;;
553;SDS011;59;48.778;9.156;2022-08-19T02:21:25;19.03;;;15.67;;
553;SDS011;59;48.778;9.156;2022-08-19T02:23:51;22.90;;;17.60;;
553;SDS011;59;48.778;9.156;2022-08-19T02:26:17;22.10;;;17.57;;
553;SDS011;59;48.778;9.156;2022-08-19T02:28:43;24.00;;;16.70;;
553;SDS011;59;48.778;9.156;2022-08-19T02:31:13;22.87;;;17.27;;
553;SDS011;59;48.778;9.156;2022-08-19T02:33:44;21.10;;;16.60;;
553;SDS011;59;48.778;9.156;2022-08-19T02:36:11;22.40;;;17.00;;
553;SDS011;59;48.778;9.156;2022-08-19T02:38:38;24.50;;;17.07;;
553;SDS011;59;48.778;9.156;2022-08-19T02:41:05;23.10;;;17.40;;
553;SDS011;59;48.778;9.156;2022-08-19T02:43:35;20.00;;;16.10;;
553;SDS011;59;48.778;9.156;2022-08-19T02:46:02;20.17;;;15.70;;
553;SDS011;59;48.778;9.156;2022-08-19T02:48:39;19.97;;;15.77;;
553;SDS011;59;48.778;9.156;2022-08-19T02:51:05;21.10;;;17.20;;
553;SDS011;59;48.778;9.156;2022-08-19T02:53:31;19.33;;;15.97;;
553;SDS011;59;48.778;9.156;2022-08-19T02:55:57;21.20;;;15.90;;
553;SDS011;59;48.778;9.156;2022-08-19T02:58:23;21.47;;;16.70;;
553;SDS011;59;48.778;9.156;2022-08-19T03:00:50;21.60;;;17.20;;
553;SDS011;59;48.778;9.156;2022-08-19T03:03:18;20.83;;;16.73;;
553;SDS011;59;48.778;9.156;2022-08-19T03:05:44;22.53;;;18.07;;
553;SDS011;59;48.778;9.156;2022-08-19T03:08:10;22.90;;;17.63;;
553;SDS011;59;48.778;9.156;2022-08-19T03:10:44;23.27;;;18.53;;
553;SDS011;59;48.778;9.156;2022-08-19T03:13:12;25.50;;;18.60;;
553;SDS011;59;48.778;9.156;2022-08-19T03:15:40;22.57;;;17.77;;
553;SDS011;59;48.778;9.156;2022-08-19T03:18:07;23.87;;;19.07;;
553;SDS011;59;48.778;9.156;2022-08-19T03:20:33;22.63;;;18.03;;
553;SDS011;59;48.778;9.156;2022-08-19T03:22:58;23.23;;;18.43;;
553;SDS011;59;48.778;9.156;2022-08-19T03:25:24;24.80;;;19.17;;
553;SDS011;59;48.778;9.156;2022-08-19T03:27:50;22.33;;;18.47;;
553;SDS011;59;48.778;9.156;2022-08-19T03:30:15;27.33;;;19.57;;
553;SDS011;59;48.778;9.156;2022-08-19T03:32:41;23.13;;;18.70;;
553;SDS011;59;48.778;9.156;2022-08-19T03:35:07;25.30;;;18.90;;
553;SDS011;59;48.778;9.156;2022-08-19T03:37:33;26.13;;;20.03;;
553;SDS011;59;48.778;9.156;2022-08-19T03:39:59;24.77;;;19.70;;
553;SDS011;59;48.778;9.156;2022-08-19T03:42:28;22.00;;;17.77;;
553;SDS011;59;48.778;9.156;2022-08-19T03:44:54;24.13;;;17.97;;
553;SDS011;59;48.778;9.156;2022-08-19T03:47:19;24.77;;;19.27;;
553;SDS011;59;48.778;9.156;2022-08-19T03:49:45;25.53;;;19.37;;
553;SDS011;59;48.778;9.156;2022-08-19T03:52:11;23.87;;;19.03;;
553;SDS011;59;48.778;9.156;2022-08-19T03:54:37;24.33;;;18.40;;
553;SDS011;59;48.778;9.156;2022-08-19T03:57:03;23.60;;;18.00;;
553;SDS011;59;48.778;9.156;2022-08-19T03:59:30;24.27;;;19.47;;
553;SDS011;59;48.778;9.156;2022-08-19T04:01:58;21.40;;;17.53;;
553;SDS011;59;48.778;9.156;2022-08-19T04:04:24;24.20;;;19.20;;
553;SDS011;59;48.778;9.156;2022-08-19T04:06:51;23.57;;;19.03;;
553;SDS011;59;48.778;9.156;2022-08-19T04:09:17;23.60;;;18.93;;
553;SDS011;59;48.778;9.156;2022-08-19T04:11:47;23.67;;;18.70;;
553;SDS011;59;48.778;9.156;2022-08-19T04:14:16;23.67;;;18.30;;
553;SDS011;59;48.778;9.156;2022-08-19T04:16:43;27.80;;;21.03;;
553;SDS011;59;48.778;9.156;2022-08-19T04:19:09;24.83;;;19.10;;
553;SDS011;59;48.778;9.156;2022-08-19T04:21:36;24.20;;;19.03;;
553;SDS011;59;48.778;9.156;2022-08-19T04:24:02;26.03;;;20.20;;
553;SDS011;59;48.778;9.156;2022-08-19T04:26:29;30.77;;;21.57;;
553;SDS011;59;48.778;9.156;2022-08-19T04:29:00;28.50;;;21.00;;
553;SDS011;59;48.778;9.156;2022-08-19T04:31:28;27.30;;;20.40;;
553;SDS011;59;48.778;9.156;2022-08-19T04:33:56;24.97;;;19.20;;
553;SDS011;59;48.778;9.156;2022-08-19T04:36:27;23.43;;;18.90;;
553;SDS011;59;48.778;9.156;2022-08-19T04:38:55;26.50;;;20.23;;
553;SDS011;59;48.778;9.156;2022-08-19T04:41:23;25.57;;;19.33;;
553;SDS011;59;48.778;9.156;2022-08-19T04:44:08;28.97;;;22.40;;
553;SDS011;59;48.778;9.156;2022-08-19T04:46:34;24.60;;;20.17;;
553;SDS011;59;48.778;9.156;2022-08-19T04:49:01;27.90;;;21.10;;
553;SDS011;59;48.778;9.156;2022-08-19T04:51:30;28.87;;;21.43;;
553;SDS011;59;48.778;9.156;2022-08-19T04:53:56;30.43;;;21.80;;
553;SDS011;59;48.778;9.156;2022-08-19T04:56:22;27.30;;;20.93;;
553;SDS011;59;48.778;9.156;2022-08-19T04:58:51;25.50;;;19.70;;
553;SDS011;59;48.778;9.156;2022-08-19T05:01:19;26.83;;;20.00;;
553;SDS011;59;48.778;9.156;2022-08-19T05:03:47;27.03;;;20.10;;
553;SDS011;59;48.778;9.156;2022-08-19T05:06:14;29.50;;;22.57;;
553;SDS011;59;48.778;9.156;2022-08-19T05:08:42;27.07;;;20.73;;
553;SDS011;59;48.778;9.156;2022-08-19T05:11:10;24.90;;;20.30;;
553;SDS011;59;48.778;9.156;2022-08-19T05:13:38;25.17;;;20.47;;
553;SDS011;59;48.778;9.156;2022-08-19T05:16:04;27.27;;;20.20;;
553;SDS011;59;48.778;9.156;2022-08-19T05:18:30;27.40;;;20.87;;
553;SDS011;59;48.778;9.156;2022-08-19T05:21:15;25.43;;;20.10;;
553;SDS011;59;48.778;9.156;2022-08-19T05:24:00;26.73;;;21.03;;
553;SDS011;59;48.778;9.156;2022-08-19T05:26:27;23.70;;;19.00;;
553;SDS011;59;48.778;9.156;2022-08-19T05:28:53;26.40;;;20.73;;
553;SDS011;59;48.778;9.156;2022-08-19T05:31:19;25.07;;;19.50;;
553;SDS011;59;48.778;9.156;2022-08-19T05:33:45;27.60;;;21.60;;
553;SDS011;59;48.778;9.156;2022-08-19T05:36:11;26.93;;;20.90;;
553;SDS011;59;48.778;9.156;2022-08-19T05:38:37;26.13;;;18.83;;
553;SDS011;59;48.778;9.156;2022-08-19T05:41:09;28.10;;;22.20;;
553;SDS011;59;48.778;9.156;2022-08-19T05:43:36;27.67;;;22.80;;
553;SDS011;59;48.778;9.156;2022-08-19T05:46:02;28.93;;;21.40;;
553;SDS011;59;48.778;9.156;2022-08-19T05:48:31;23.50;;;19.43;;
553;SDS011;59;48.778;9.156;2022-08-19T05:51:04;26.87;;;22.37;;
553;SDS011;59;48.778;9.156;2022-08-19T05:53:31;24.20;;;19.83;;
553;SDS011;59;48.778;9.156;2022-08-19T05:55:58;25.83;;;20.33;;
553;SDS011;59;48.778;9.156;2022-08-19T05:58:32;30.20;;;22.70;;
553;SDS011;59;48.778;9.156;2022-08-19T06:00:58;28.60;;;21.43;;
553;SDS011;59;48.778;9.156;2022-08-19T06:03:29;25.90;;;20.57;;
553;SDS011;59;48.778;9.156;2022-08-19T06:05:55;25.70;;;21.00;;
553;SDS011;59;48.778;9.156;2022-08-19T06:08:24;23.10;;;19.60;;
553;SDS011;59;48.778;9.156;2022-08-19T06:10:50;24.70;;;19.73;;
553;SDS011;59;48.778;9.156;2022-08-19T06:13:15;25.97;;;20.17;;
553;SDS011;59;48.778;9.156;2022-08-19T06:15:42;25.60;;;20.53;;
553;SDS011;59;48.778;9.156;2022-08-19T06:18:09;25.43;;;20.00;;
553;SDS011;59;48.778;9.156;2022-08-19T06:20:34;26.70;;;20.23;;
553;SDS011;59;48.778;9.156;2022-08-19T06:23:00;26.80;;;20.00;;
553;SDS011;59;48.778;9.156;2022-08-19T06:25:26;28.10;;;21.13;;
553;SDS011;59;48.778;9.156;2022-08-19T06:27:51;29.10;;;21.47;;
553;SDS011;59;48.778;9.156;2022-08-19T06:30:18;25.80;;;19.33;;
553;SDS011;59;48.778;9.156;2022-08-19T06:32:44;23.80;;;19.83;;
553;SDS011;59;48.778;9.156;2022-08-19T06:35:10;27.20;;;20.00;;
553;SDS011;59;48.778;9.156;2022-08-19T06:37:36;25.90;;;19.20;;
553;SDS011;59;48.778;9.156;2022-08-19T06:40:02;26.50;;;20.70;;
553;SDS011;59;48.778;9.156;2022-08-19T06:42:29;24.87;;;19.73;;
553;SDS011;59;48.778;9.156;2022-08-19T06:44:55;26.30;;;20.60;;
553;SDS011;59;48.778;9.156;2022-08-19T06:47:21;28.70;;;20.93;;
553;SDS011;59;48.778;9.156;2022-08-19T06:49:47;23.10;;;19.37;;
553;SDS011;59;48.778;9.156;2022-08-19T06:52:13;27.70;;;21.00;;
553;SDS011;59;48.778;9.156;2022-08-19T06:54:40;24.33;;;19.17;;
553;SDS011;59;48.778;9.156;2022-08-19T06:57:06;24.73;;;19.80;;
553;SDS011;59;48.778;9.156;2022-08-19T06:59:34;29.77;;;21.73;;
553;SDS011;59;48.778;9.156;2022-08-19T07:02:01;27.60;;;21.50;;
553;SDS011;59;48.778;9.156;2022-08-19T07:04:30;26.87;;;20.90;;
553;SDS011;59;48.778;9.156;2022-08-19T07:07:07;25.40;;;20.10;;
553;SDS011;59;48.778;9.156;2022-08-19T07:09:39;27.00;;;19.93;;
553;SDS011;59;48.778;9.156;2022-08-19T07:12:07;26.50;;;19.60;;
553;SDS011;59;48.778;9.156;2022-08-19T07:14:34;22.43;;;18.60;;
553;SDS011;59;48.778;9.156;2022-08-19T07:17:08;22.43;;;18.53;;
553;SDS011;59;48.778;9.156;2022-08-19T07:19:35;30.70;;;22.67;;
553;SDS011;59;48.778;9.156;2022-08-19T07:22:03;23.70;;;18.90;;
553;SDS011;59;48.778;9.156;2022-08-19T07:24:31;23.27;;;19.17;;
553;SDS011;59;48.778;9.156;2022-08-19T07:26:58;23.73;;;18.40;;
553;SDS011;59;48.778;9.156;2022-08-19T07:29:27;26.47;;;20.83;;
553;SDS011;59;48.778;9.156;2022-08-19T07:31:53;21.67;;;18.10;;
553;SDS011;59;48.778;9.156;2022-08-19T07:34:23;23.50;;;19.00;;
553;SDS011;59;48.778;9.156;2022-08-19T07:36:50;24.83;;;19.13;;
553;SDS011;59;48.778;9.156;2022-08-19T07:39:19;22.70;;;18.00;;
553;SDS011;59;48.778;9.156;2022-08-19T07:41:47;24.90;;;19.30;;
553;SDS011;59;48.778;9.156;2022-08-19T07:44:13;23.37;;;18.13;;
553;SDS011;59;48.778;9.156;2022-08-19T07:46:42;22.40;;;17.83;;
553;SDS011;59;48.778;9.156;2022-08-19T07:49:09;21.20;;;17.77;;
553;SDS011;59;48.778;9.156;2022-08-19T07:51:44;23.03;;;18.40;;
553;SDS011;59;48.778;9.156;2022-08-19T07:54:14;22.40;;;17.30;;
553;SDS011;59;48.778;9.156;2022-08-19T07:56:40;23.57;;;19.13;;
553;SDS011;59;48.778;9.156;2022-08-19T07:59:05;21.63;;;16.90;;
553;SDS011;59;48.778;9.156;2022-08-19T08:01:32;21.70;;;16.70;;
553;SDS011;59;48.778;9.156;2022-08-19T08:03:58;21.97;;;17.57;;
553;SDS011;59;48.778;9.156;2022-08-19T08:06:46;26.03;;;20.57;;
553;SDS011;59;48.778;9.156;2022-08-19T08:09:32;23.73;;;19.40;;
553;SDS011;59;48.778;9.156;2022-08-19T08:12:02;24.67;;;19.60;;
553;SDS011;59;48.778;9.156;2022-08-19T08:14:34;23.07;;;18.30;;
553;SDS011;59;48.778;9.156;2022-08-19T08:17:08;20.70;;;17.53;;
553;SDS011;59;48.778;9.156;2022-08-19T08:19:35;22.47;;;18.30;;
553;SDS011;59;48.778;9.156;2022-08-19T08:22:02;22.60;;;17.90;;
553;SDS011;59;48.778;9.156;2022-08-19T08:24:31;20.60;;;17.07;;
553;SDS011;59;48.778;9.156;2022-08-19T08:26:57;22.10;;;17.53;;
553;SDS011;59;48.778;9.156;2022-08-19T08:29:28;21.17;;;17.70;;
553;SDS011;59;48.778;9.156;2022-08-19T08:31:54;18.33;;;15.57;;
553;SDS011;59;48.778;9.156;2022-08-19T08:34:20;20.43;;;16.10;;
553;SDS011;59;48.778;9.156;2022-08-19T08:36:46;18.73;;;16.50;;
553;SDS011;59;48.778;9.156;2022-08-19T08:39:16;20.00;;;17.00;;
553;SDS011;59;48.778;9.156;2022-08-19T08:41:58;25.40;;;19.80;;
553;SDS011;59;48.778;9.156;2022-08-19T08:47:36;19.43;;;16.20;;
553;SDS011;59;48.778;9.156;2022-08-19T08:50:08;22.37;;;17.23;;
553;SDS011;59;48.778;9.156;2022-08-19T08:52:39;19.90;;;17.30;;
553;SDS011;59;48.778;9.156;2022-08-19T08:55:18;20.20;;;16.10;;
553;SDS011;59;48.778;9.156;2022-08-19T09:02:48;23.13;;;17.40;;
553;SDS011;59;48.778;9.156;2022-08-19T09:05:14;21.60;;;16.90;;
553;SDS011;59;48.778;9.156;2022-08-19T09:07:46;20.00;;;16.70;;
553;SDS011;59;48.778;9.156;2022-08-19T09:15:39;21.10;;;16.00;;
553;SDS011;59;48.778;9.156;2022-08-19T09:18:09;21.70;;;17.33;;
553;SDS011;59;48.778;9.156;2022-08-19T09:20:35;21.40;;;15.80;;
553;SDS011;59;48.778;9.156;2022-08-19T09:23:01;26.80;;;18.90;;
553;SDS011;59;48.778;9.156;2022-08-19T09:25:27;22.13;;;16.93;;
553;SDS011;59;48.778;9.156;2022-08-19T09:27:54;23.00;;;18.10;;
553;SDS011;59;48.778;9.156;2022-08-19T09:30:23;20.30;;;16.67;;
553;SDS011;59;48.778;9.156;2022-08-19T09:32:51;18.00;;;14.87;;
553;SDS011;59;48.778;9.156;2022-08-19T09:35:24;19.33;;;16.00;;
553;SDS011;59;48.778;9.156;2022-08-19T09:37:52;19.90;;;16.90;;
553;SDS011;59;48.778;9.156;2022-08-19T09:40:18;18.03;;;15.40;;
553;SDS011;59;48.778;9.156;2022-08-19T09:42:45;20.20;;;16.67;;
553;SDS011;59;48.778;9.156;2022-08-19T09:45:12;20.50;;;16.23;;
553;SDS011;59;48.778;9.156;2022-08-19T09:47:39;23.37;;;18.13;;
553;SDS011;59;48.778;9.156;2022-08-19T09:50:06;19.33;;;14.60;;
553;SDS011;59;48.778;9.156;2022-08-19T09:52:33;19.97;;;16.63;;
553;SDS011;59;48.778;9.156;2022-08-19T09:55:04;20.23;;;14.93;;
553;SDS011;59;48.778;9.156;2022-08-19T09:57:32;20.10;;;15.17;;
553;SDS011;59;48.778;9.156;2022-08-19T09:59:58;16.23;;;14.20;;
553;SDS011;59;48.778;9.156;2022-08-19T10:02:24;18.60;;;13.67;;
553;SDS011;59;48.778;9.156;2022-08-19T10:04:50;16.23;;;13.87;;
553;SDS011;59;48.778;9.156;2022-08-19T10:07:34;17.17;;;13.53;;
553;SDS011;59;48.778;9.156;2022-08-19T10:10:01;16.60;;;13.70;;
553;SDS011;59;48.778;9.156;2022-08-19T10:12:28;16.20;;;14.20;;
553;SDS011;59;48.778;9.156;2022-08-19T10:14:54;19.57;;;14.40;;
553;SDS011;59;48.778;9.156;2022-08-19T10:17:20;15.90;;;13.67;;
553;SDS011;59;48.778;9.156;2022-08-19T10:19:46;16.20;;;13.77;;
553;SDS011;59;48.778;9.156;2022-08-19T10:22:12;14.80;;;13.70;;
553;SDS011;59;48.778;9.156;2022-08-19T10:24:39;16.20;;;13.30;;
553;SDS011;59;48.778;9.156;2022-08-19T10:27:05;16.30;;;13.60;;
553;SDS011;59;48.778;9.156;2022-08-19T10:29:31;17.53;;;13.67;;
553;SDS011;59;48.778;9.156;2022-08-19T10:31:57;17.00;;;13.30;;
553;SDS011;59;48.778;9.156;2022-08-19T10:34:25;14.60;;;12.90;;
553;SDS011;59;48.778;9.156;2022-08-19T10:36:53;16.60;;;13.37;;
553;SDS011;59;48.778;9.156;2022-08-19T10:39:19;14.87;;;12.60;;
553;SDS011;59;48.778;9.156;2022-08-19T10:41:45;17.90;;;12.47;;
553;SDS011;59;48.778;9.156;2022-08-19T10:44:12;13.80;;;11.93;;
553;SDS011;59;48.778;9.156;2022-08-19T10:46:39;14.13;;;12.00;;
553;SDS011;59;48.778;9.156;2022-08-19T10:49:10;19.70;;;13.73;;
553;SDS011;59;48.778;9.156;2022-08-19T10:51:36;15.83;;;12.60;;
553;SDS011;59;48.778;9.156;2022-08-19T10:54:22;15.17;;;11.77;;
553;SDS011;59;48.778;9.156;2022-08-19T10:56:47;20.23;;;12.40;;
553;SDS011;59;48.778;9.156;2022-08-19T10:59:16;18.13;;;12.30;;
553;SDS011;59;48.778;9.156;2022-08-19T11:01:44;14.40;;;11.30;;
553;SDS011;59;48.778;9.156;2022-08-19T11:04:10;13.50;;;10.93;;
553;SDS011;59;48.778;9.156;2022-08-19T11:06:39;14.03;;;10.57;;
553;SDS011;59;48.778;9.156;2022-08-19T11:09:06;16.07;;;11.50;;
553;SDS011;59;48.778;9.156;2022-08-19T11:11:33;33.90;;;24.57;;
553;SDS011;59;48.778;9.156;2022-08-19T11:14:04;27.00;;;22.90;;
553;SDS011;59;48.778;9.156;2022-08-19T11:16:30;19.90;;;16.83;;
553;SDS011;59;48.778;9.156;2022-08-19T11:18:57;16.87;;;14.60;;
553;SDS011;59;48.778;9.156;2022-08-19T11:21:24;13.20;;;12.27;;
553;SDS011;59;48.778;9.156;2022-08-19T11:23:53;14.57;;;12.33;;
553;SDS011;59;48.778;9.156;2022-08-19T11:26:22;12.90;;;11.40;;
553;SDS011;59;48.778;9.156;2022-08-19T11:28:51;12.20;;;10.77;;
553;SDS011;59;48.778;9.156;2022-08-19T11:31:20;10.73;;;10.00;;
553;SDS011;59;48.778;9.156;2022-08-19T11:33:50;11.20;;;10.03;;
553;SDS011;59;48.778;9.156;2022-08-19T11:36:19;11.37;;;10.10;;
553;SDS011;59;48.778;9.156;2022-08-19T11:38:46;10.93;;;10.20;;
553;SDS011;59;48.778;9.156;2022-08-19T11:41:13;12.47;;;10.20;;
553;SDS011;59;48.778;9.156;2022-08-19T11:43:40;12.33;;;10.80;;
553;SDS011;59;48.778;9.156;2022-08-19T11:46:07;10.20;;;9.30;;
553;SDS011;59;48.778;9.156;2022-08-19T11:48:34;10.80;;;9.00;;
553;SDS011;59;48.778;9.156;2022-08-19T11:51:03;10.00;;;9.10;;
553;SDS011;59;48.778;9.156;2022-08-19T11:53:34;11.33;;;9.53;;
553;SDS011;59;48.778;9.156;2022-08-19T11:56:00;10.03;;;9.63;;
553;SDS011;59;48.778;9.156;2022-08-19T11:58:26;13.13;;;10.13;;
553;SDS011;59;48.778;9.156;2022-08-19T12:00:52;12.13;;;9.67;;
553;SDS011;59;48.778;9.156;2022-08-19T12:03:18;12.67;;;10.13;;
553;SDS011;59;48.778;9.156;2022-08-19T12:05:44;10.20;;;9.70;;
553;SDS011;59;48.778;9.156;2022-08-19T12:08:10;10.67;;;9.33;;
553;SDS011;59;48.778;9.156;2022-08-19T12:10:37;11.17;;;9.57;;
553;SDS011;59;48.778;9.156;2022-08-19T12:13:13;9.30;;;8.87;;
553;SDS011;59;48.778;9.156;2022-08-19T12:15:51;10.50;;;9.37;;
553;SDS011;59;48.778;9.156;2022-08-19T12:18:18;9.07;;;8.57;;
553;SDS011;59;48.778;9.156;2022-08-19T12:20:43;9.50;;;8.77;;
553;SDS011;59;48.778;9.156;2022-08-19T12:23:10;9.93;;;8.80;;
553;SDS011;59;48.778;9.156;2022-08-19T12:25:36;11.80;;;9.60;;
553;SDS011;59;48.778;9.156;2022-08-19T12:28:03;11.10;;;9.40;;
553;SDS011;59;48.778;9.156;2022-08-19T12:30:28;10.00;;;9.13;;
553;SDS011;59;48.778;9.156;2022-08-19T12:32:54;9.67;;;9.07;;
553;SDS011;59;48.778;9.156;2022-08-19T12:35:20;11.47;;;9.87;;
553;SDS011;59;48.778;9.156;2022-08-19T12:37:47;9.90;;;9.10;;
553;SDS011;59;48.778;9.156;2022-08-19T12:40:13;9.20;;;8.70;;
553;SDS011;59;48.778;9.156;2022-08-19T12:42:40;10.13;;;9.33;;
553;SDS011;59;48.778;9.156;2022-08-19T12:45:09;10.30;;;9.50;;
553;SDS011;59;48.778;9.156;2022-08-19T12:47:35;11.83;;;9.17;;
553;SDS011;59;48.778;9.156;2022-08-19T12:50:01;9.77;;;9.20;;
553;SDS011;59;48.778;9.156;2022-08-19T12:52:27;9.57;;;8.93;;
553;SDS011;59;48.778;9.156;2022-08-19T12:54:53;9.60;;;8.70;;
553;SDS011;59;48.778;9.156;2022-08-19T12:57:20;8.90;;;8.23;;
553;SDS011;59;48.778;9.156;2022-08-19T12:59:48;9.20;;;8.70;;
553;SDS011;59;48.778;9.156;2022-08-19T13:02:18;9.80;;;8.73;;
553;SDS011;59;48.778;9.156;2022-08-19T13:04:44;8.40;;;7.87;;
553;SDS011;59;48.778;9.156;2022-08-19T13:07:10;9.83;;;9.00;;
553;SDS011;59;48.778;9.156;2022-08-19T13:09:36;17.70;;;12.10;;
553;SDS011;59;48.778;9.156;2022-08-19T13:12:03;15.10;;;11.50;;
553;SDS011;59;48.778;9.156;2022-08-19T13:14:32;11.03;;;10.03;;
553;SDS011;59;48.778;9.156;2022-08-19T13:16:59;12.37;;;10.90;;
553;SDS011;59;48.778;9.156;2022-08-19T13:19:25;11.87;;;10.60;;
553;SDS011;59;48.778;9.156;2022-08-19T13:21:51;10.80;;;9.60;;
553;SDS011;59;48.778;9.156;2022-08-19T13:24:17;11.20;;;9.93;;
553;SDS011;59;48.778;9.156;2022-08-19T13:26:43;10.30;;;9.80;;
553;SDS011;59;48.778;9.156;2022-08-19T13:29:09;10.10;;;9.50;;
553;SDS011;59;48.778;9.156;2022-08-19T13:31:53;10.33;;;9.50;;
553;SDS011;59;48.778;9.156;2022-08-19T13:34:37;10.90;;;9.07;;
553;SDS011;59;48.778;9.156;2022-08-19T13:37:03;12.10;;;10.87;;
553;SDS011;59;48.778;9.156;2022-08-19T13:39:30;17.47;;;14.00;;
553;SDS011;59;48.778;9.156;2022-08-19T13:41:57;16.47;;;13.60;;
553;SDS011;59;48.778;9.156;2022-08-19T13:44:24;16.60;;;13.40;;
553;SDS011;59;48.778;9.156;2022-08-19T13:46:51;14.97;;;12.07;;
553;SDS011;59;48.778;9.156;2022-08-19T13:49:18;19.77;;;15.80;;
553;SDS011;59;48.778;9.156;2022-08-19T13:51:45;19.70;;;15.97;;
553;SDS011;59;48.778;9.156;2022-08-19T13:54:11;24.83;;;18.50;;
553;SDS011;59;48.778;9.156;2022-08-19T13:56:41;22.20;;;17.80;;
553;SDS011;59;48.778;9.156;2022-08-19T13:59:08;18.23;;;14.83;;
553;SDS011;59;48.778;9.156;2022-08-19T14:01:33;22.37;;;16.77;;
553;SDS011;59;48.778;9.156;2022-08-19T14:03:59;23.10;;;16.67;;
553;SDS011;59;48.778;9.156;2022-08-19T14:06:26;23.40;;;17.27;;
553;SDS011;59;48.778;9.156;2022-08-19T14:08:51;29.07;;;22.70;;
553;SDS011;59;48.778;9.156;2022-08-19T14:11:17;28.77;;;22.67;;
553;SDS011;59;48.778;9.156;2022-08-19T14:13:43;30.10;;;23.77;;
553;SDS011;59;48.778;9.156;2022-08-19T14:16:11;25.50;;;20.33;;
553;SDS011;59;48.778;9.156;2022-08-19T14:18:37;22.00;;;17.63;;
553;SDS011;59;48.778;9.156;2022-08-19T14:21:04;25.13;;;19.90;;
553;SDS011;59;48.778;9.156;2022-08-19T14:23:31;31.10;;;23.17;;
553;SDS011;59;48.778;9.156;2022-08-19T14:26:11;37.40;;;24.80;;
553;SDS011;59;48.778;9.156;2022-08-19T14:28:39;29.77;;;23.07;;
553;SDS011;59;48.778;9.156;2022-08-19T14:31:06;30.00;;;22.50;;
553;SDS011;59;48.778;9.156;2022-08-19T14:33:44;30.40;;;22.70;;
553;SDS011;59;48.778;9.156;2022-08-19T14:36:10;27.27;;;21.93;;
553;SDS011;59;48.778;9.156;2022-08-19T14:38:36;26.60;;;19.87;;
553;SDS011;59;48.778;9.156;2022-08-19T14:41:09;22.47;;;18.17;;
553;SDS011;59;48.778;9.156;2022-08-19T14:43:41;21.10;;;17.37;;
553;SDS011;59;48.778;9.156;2022-08-19T14:46:07;24.10;;;18.70;;
553;SDS011;59;48.778;9.156;2022-08-19T14:48:35;25.90;;;19.23;;
553;SDS011;59;48.778;9.156;2022-08-19T14:51:03;25.63;;;18.87;;
553;SDS011;59;48.778;9.156;2022-08-19T14:53:29;24.20;;;18.40;;
553;SDS011;59;48.778;9.156;2022-08-19T14:55:55;28.03;;;20.70;;
553;SDS011;59;48.778;9.156;2022-08-19T14:58:21;25.40;;;19.43;;
553;SDS011;59;48.778;9.156;2022-08-19T15:00:47;26.90;;;20.23;;
553;SDS011;59;48.778;9.156;2022-08-19T15:03:13;22.13;;;18.30;;
553;SDS011;59;48.778;9.156;2022-08-19T15:05:39;22.20;;;16.60;;
553;SDS011;59;48.778;9.156;2022-08-19T15:08:06;23.30;;;18.37;;
553;SDS011;59;48.778;9.156;2022-08-19T15:10:32;21.30;;;17.07;;
553;SDS011;59;48.778;9.156;2022-08-19T15:12:58;17.80;;;14.53;;
553;SDS011;59;48.778;9.156;2022-08-19T15:15:24;14.70;;;13.20;;
553;SDS011;59;48.778;9.156;2022-08-19T15:17:50;19.67;;;14.50;;
553;SDS011;59;48.778;9.156;2022-08-19T15:20:17;13.70;;;12.90;;
553;SDS011;59;48.778;9.156;2022-08-19T15:22:44;13.43;;;12.53;;
553;SDS011;59;48.778;9.156;2022-08-19T15:25:11;17.87;;;15.23;;
553;SDS011;59;48.778;9.156;2022-08-19T15:27:38;17.10;;;14.70;;
553;SDS011;59;48.778;9.156;2022-08-19T15:30:05;16.80;;;15.00;;
553;SDS011;59;48.778;9.156;2022-08-19T15:32:35;20.27;;;16.00;;
553;SDS011;59;48.778;9.156;2022-08-19T15:35:04;17.30;;;13.77;;
553;SDS011;59;48.778;9.156;2022-08-19T15:37:31;13.63;;;12.10;;
553;SDS011;59;48.778;9.156;2022-08-19T15:39:57;14.03;;;12.30;;
553;SDS011;59;48.778;9.156;2022-08-19T15:42:22;13.80;;;13.07;;
553;SDS011;59;48.778;9.156;2022-08-19T15:44:49;16.90;;;13.17;;
553;SDS011;59;48.778;9.156;2022-08-19T15:47:16;16.40;;;14.13;;
553;SDS011;59;48.778;9.156;2022-08-19T15:49:44;12.97;;;12.20;;
553;SDS011;59;48.778;9.156;2022-08-19T15:52:09;14.60;;;12.40;;